Airfield :
LOGIN :

Register | Disclaimer

   EN    FR    IT 

 










Legend :    VFR   Marginal VFR   IFR   Intensive IFR   Very Intensive IFR
Visi :
Ceiling :
>= 8 km
>= 3000ft
5 to 8 km
1000 to 3000 ft
1500m to 5 km
500 to 1000 ft
800 to 1500m
200 to 500 ft
< 800m
< 200 ft
Symbols :   Thunderstorms  Fog  Heavy snow  Heavy precipitations  Wind > 20 kt
SIGMETs :     Misc.  Thunderstorms  Icing  Turbulence  Mountain Waves  Volcanic Ashes







- Airport Elevation : 32 ft
- IATA code : NRK


ESSP - Norrköping

CURRENT METAR :
  • 240620Z VRB02KT CAVOK 21/17 Q1019

EXPIRED METARs :
  • 240550Z VRB03KT CAVOK 21/17 Q1019
  • 240520Z AUTO VRB02KT 9999 OVC049/// 20/18 Q1019
  • 240450Z AUTO 32002KT 9999 OVC049/// 19/18 Q1019
  • 240420Z AUTO 28003KT 9999 OVC047/// 18/18 Q1019
  • 240350Z AUTO 27002KT 9999 OVC046/// 18/17 Q1018

TAF TAF ESSP
Valid from the 24 at 06:00 until the 24 at 15:00 UTC


240530Z 2406/2415 32002KT CAVOK
No reported NOTAMs for that airfield.



MET'MAP, your aeronautical weather chart ! - Copyright ORBIFLY December 2007 - Disclaimer

ORBIFLY MET'MAP TEAM :

Programming & Development : Alexandra Zaïnal
Concept & Development : Baudouin d'Aumeries
Co-Development & Prog : Marc-Olivier Méhu
Technical & hardware support : Manuel Goepfert

Contact : metmap@orbifly.com




SOURCES & CREDITS :

   NOAA